Arch, New Mexico
Current Conditions -  °F | °C
As of 1:58 PM on Monday 22 Dec 2014 (Local Time) from KCVS Reporting Station
Clear Clear  
Wind Chill: 51°   Ceiling: Unl
Heat Index: 51°   Visibility: 10mi
Dew Point: 24°   Wind: 9mph
Humidity: 35%   Direction: 110°ESE
Pressure: 29.67"   Gusts: NA
Location:  34.1669°N, 103.266°W
Report Text: KCVS 222058Z AUTO 11008KT 10SM CLR 10/M04 A2967 RMK AO2 SLP022 T01041044 57036 $
Loading
Personal Weather Stations






























Interactive Weather Map New forecast layout! Learn more

10-Day Weather Forecast

Advertisements
Track Severe Weather on mobile